Have a Safe July 4th! 

Flight Track Log - Related Links

Times and Time Zones

All times are in EDT time to prevent confusion due to time zone crossing. See the N145KK flight status page for this flight to view local times or setup timezone preferences in your user account.

Time Position Orientation Groundspeed Altitude Reporting Facility
EDT Latitude Longitude Course Direction KTS MPH feet Rate Location/Type
Mon 03:38:26 PM 21.7667 -72.1919 324° Northwest 394 453 4,000  Level Miami Center
Mon 03:39:26 PM 21.7692 -72.1336 87° East 299 344 6,100 2,000 Climbing Miami Center
Mon 03:40:26 PM 21.8172 -72.1386 354° North 147 169 8,000 2,300 Climbing Miami Center
Mon 03:41:26 PM 21.8642 -72.1706 328° Northwest 142 163 10,700 1,900 Climbing Miami Center
Mon 03:42:26 PM 21.9217 -72.2064 330° Northwest 181 208 11,800 1,450 Climbing Miami Center
Mon 03:43:00 PM 22.2292 -72.6544 290° West  Level FlightAware Approximate
Mon 03:43:26 PM 21.9797 -72.2628 318° Northwest 242 278 13,600  Level Miami Center
Mon 03:44:00 PM 22.3066 -72.7253 324° Northwest  Level FlightAware Approximate
Mon 03:44:26 PM 22.0417 -72.3142 322° Northwest 262 302 15,500  Level Miami Center
Mon 03:45:26 PM 22.1122 -72.3700 324° Northwest 291 335 16,600 1,300 Climbing Miami Center
Mon 03:46:26 PM 22.1828 -72.4281 323° Northwest 309 356 18,100 1,450 Climbing Miami Center
Mon 03:47:26 PM 22.2536 -72.4886 322° Northwest 314 361 19,500 1,250 Climbing Miami Center
Mon 03:48:26 PM 22.3283 -72.5489 323° Northwest 325 374 20,600 1,050 Climbing Miami Center
Mon 03:49:26 PM 22.4031 -72.6117 322° Northwest 338 389 21,600 950 Climbing Miami Center
Mon 03:50:26 PM 22.4800 -72.6742 323° Northwest 343 395 22,500 950 Climbing Miami Center
Mon 03:51:26 PM 22.5592 -72.7392 323° Northwest 348 400 23,500 950 Climbing Miami Center
Mon 03:52:26 PM 22.6419 -72.7950 328° Northwest 348 400 24,400 950 Climbing Miami Center
Mon 03:53:26 PM 22.7392 -72.8325 340° North 353 406 25,400 1,000 Climbing Miami Center
Mon 03:54:26 PM 22.8403 -72.8653 343° North 360 414 26,400 1,000 Climbing Miami Center
Mon 03:55:26 PM 22.9311 -72.9075 337° Northwest 360 414 27,400 850 Climbing Miami Center
Mon 03:56:26 PM 23.0197 -72.9389 342° North 365 420 28,100 900 Climbing Miami Center
Mon 03:57:26 PM 23.1272 -72.9783 341° North 365 420 29,200 950 Climbing Miami Center
Mon 03:58:26 PM 23.2242 -73.0139 341° North 378 435 30,000 900 Climbing Miami Center
Mon 03:59:26 PM 23.3253 -73.0492 342° North 371 427 31,000 1,000 Climbing Miami Center
Mon 04:00:26 PM 23.4181 -73.0872 339° North 371 427 32,000 1,000 Climbing Miami Center
Mon 04:01:26 PM 23.4972 -73.1550 322° Northwest 357 411 33,000 1,050 Climbing Miami Center
Mon 04:02:26 PM 23.5697 -73.2233 319° Northwest 351 404 34,100 1,050 Climbing Miami Center
Mon 04:03:26 PM 23.6444 -73.2914 320° Northwest 351 404 35,100 1,000 Climbing Miami Center
Mon 04:04:26 PM 23.7192 -73.3594 320° Northwest 346 398 36,100 1,050 Climbing Miami Center
Mon 04:05:26 PM 23.7919 -73.4233 321° Northwest 340 391 37,200 1,050 Climbing Miami Center
Mon 04:06:26 PM 23.8622 -73.4897 319° Northwest 340 391 38,200 1,000 Climbing Miami Center
Mon 04:07:26 PM 23.9264 -73.5492 320° Northwest 326 375 39,200 900 Climbing Miami Center
Mon 04:08:26 PM 23.9881 -73.6089 319° Northwest 311 358 40,000 650 Climbing Miami Center
Mon 04:09:26 PM 24.0583 -73.6686 322° Northwest 311 358 40,500 550 Climbing Miami Center
Mon 04:10:26 PM 24.1181 -73.7286 317° Northwest 306 352 41,100 550 Climbing Miami Center
Mon 04:11:26 PM 24.1822 -73.7883 320° Northwest 301 346 41,600 450 Climbing Miami Center
Mon 04:12:26 PM 24.2481 -73.8461 321° Northwest 294 338 42,000 400 Climbing Miami Center
Mon 04:13:26 PM 24.3056 -73.9039 318° Northwest 294 338 42,400 300 Climbing Miami Center
Mon 04:14:26 PM 24.3714 -73.9617 321° Northwest 294 338 42,600 200 Climbing Miami Center
Mon 04:15:26 PM 24.4292 -74.0219 316° Northwest 289 333 42,800 200 Climbing Miami Center
Mon 04:16:26 PM 24.4969 -74.0797 322° Northwest 294 338 43,000 100 Climbing Miami Center
Mon 04:17:26 PM 24.5608 -74.1400 319° Northwest 294 338 43,000  Level Miami Center
Mon 04:18:26 PM 24.6225 -74.2003 318° Northwest 294 338 43,000  Level Miami Center
Mon 04:19:26 PM 24.6883 -74.2631 319° Northwest 299 344 43,000  Level Miami Center
Mon 04:20:26 PM 24.7564 -74.3278 319° Northwest 310 357 43,000  Level Miami Center
Mon 04:21:26 PM 24.8244 -74.3906 320° Northwest 318 366 43,000  Level Miami Center
Mon 04:22:26 PM 24.8944 -74.4556 320° Northwest 323 372 43,000  Level Miami Center
Mon 04:23:26 PM 24.9667 -74.5253 319° Northwest 325 374 43,000  Level Miami Center
Mon 04:24:26 PM 25.0367 -74.5928 319° Northwest 325 374 43,000  Level Miami Center
Mon 04:25:26 PM 25.1086 -74.6603 320° Northwest 330 380 43,000  Level Miami Center
Mon 04:26:26 PM 25.1786 -74.7256 320° Northwest 335 386 43,000  Level Miami Center
Mon 04:27:26 PM 25.2506 -74.7931 320° Northwest 335 386 43,000  Level Miami Center
Mon 04:28:26 PM 25.3247 -74.8678 318° Northwest 345 397 43,000  Level Miami Center
Mon 04:29:26 PM 25.3947 -74.9356 319° Northwest 340 391 43,000  Level Miami Center
Mon 04:30:26 PM 25.4686 -75.0033 320° Northwest 340 391 43,000  Level Miami Center
Mon 04:31:26 PM 25.5406 -75.0761 318° Northwest 346 398 43,000  Level Miami Center
Mon 04:32:26 PM 25.6144 -75.1486 319° Northwest 346 398 43,000  Level Miami Center
Mon 04:33:26 PM 25.6864 -75.2192 319° Northwest 346 398 43,000  Level Miami Center
Mon 04:34:26 PM 25.7561 -75.2828 321° Northwest 341 392 43,000  Level Miami Center
Mon 04:35:26 PM 25.8361 -75.3533 322° Northwest 341 392 43,000  Level Miami Center
Mon 04:36:26 PM 25.9081 -75.4264 318° Northwest 346 398 43,000  Level Miami Center
Mon 04:37:26 PM 25.9775 -75.4947 319° Northwest 341 392 43,000  Level Miami Center
Mon 04:38:26 PM 26.0578 -75.5725 319° Northwest 352 405 43,000  Level Miami Center
Mon 04:39:26 PM 26.1253 -75.6367 320° Northwest 342 394 43,000  Level Miami Center
Mon 04:40:26 PM 26.2011 -75.7122 318° Northwest 342 394 43,000  Level Miami Center
Mon 04:41:26 PM 26.2725 -75.7811 319° Northwest 342 394 43,000 -250 Level Miami Center
Mon 04:42:26 PM 26.3442 -75.8522 318° Northwest 342 394 42,500 -750 Descending Miami Center
Mon 04:43:26 PM 26.4219 -75.9306 318° Northwest 357 411 41,500 -750 Descending Miami Center
Mon 04:44:26 PM 26.5061 -76.0111 319° Northwest 377 434 41,000 -250 Descending Miami Center
Mon 04:45:26 PM 26.5858 -76.0919 318° Northwest 377 434 41,000  Level Miami Center
Mon 04:46:26 PM 26.6636 -76.1633 321° Northwest 371 427 41,000  Level Miami Center
Mon 04:47:26 PM 26.7411 -76.2419 318° Northwest 379 436 41,000  Level Miami Center
Mon 04:48:26 PM 26.8250 -76.3256 318° Northwest 379 436 41,000  Level Miami Center
Mon 04:49:26 PM 26.9006 -76.4019 318° Northwest 379 436 41,000  Level Miami Center
Mon 04:50:26 PM 26.9803 -76.4833 318° Northwest 374 430 41,000  Level Miami Center
Mon 04:51:26 PM 27.0575 -76.5553 320° Northwest 374 430 41,000  Level Miami Center
Mon 04:52:26 PM 27.1350 -76.6344 318° Northwest 369 425 41,000  Level Miami Center
Mon 04:53:26 PM 27.2125 -76.7114 319° Northwest 369 425 41,000  Level Miami Center
Mon 04:54:26 PM 27.2897 -76.7931 317° Northwest 374 430 41,000  Level Miami Center
Mon 04:55:26 PM 27.3650 -76.8564 323° Northwest 362 417 41,000  Level Miami Center
Mon 04:56:26 PM 27.4422 -76.9406 316° Northwest 364 419 41,000  Level Miami Center
Mon 04:57:38 PM 27.5258 -77.0272 317° Northwest 373 429 41,000  Level Miami Center
Mon 04:58:38 PM 27.6511 -77.0556 349° North 364 419 41,000  Level Miami Center
Mon 04:59:38 PM 27.7575 -77.0606 358° North 376 433 41,000  Level Miami Center
Mon 05:00:38 PM 27.8639 -77.0769 352° North 381 438 41,000  Level Miami Center
Mon 05:01:38 PM 27.9725 -77.1031 348° North 386 444 41,000  Level Miami Center
Mon 05:02:38 PM 28.0561 -77.1081 357° North 386 444 41,000  Level Miami Center
Mon 05:03:38 PM 28.1856 -77.1342 350° North 398 458 41,000  Level Miami Center
Mon 05:04:38 PM 28.2897 -77.1511 352° North 398 458 41,000  Level Miami Center
Mon 05:05:38 PM 28.4044 -77.1703 352° North 398 458 41,000  Level Miami Center
Mon 05:06:38 PM 28.5006 -77.1775 356° North 382 440 41,000  Level Miami Center
Mon 05:07:38 PM 28.6111 -77.2061 347° North 382 440 41,000  Level Miami Center
Mon 05:08:38 PM 28.7217 -77.2231 352° North 397 457 41,000  Level Miami Center
Mon 05:09:38 PM 28.8364 -77.2400 353° North 402 463 41,000  Level Miami Center
Mon 05:10:38 PM 28.9428 -77.2594 351° North 393 452 41,000  Level Miami Center
Mon 05:11:38 PM 29.0472 -77.2739 353° North 386 444 41,000  Level Miami Center
Mon 05:12:38 PM 29.1536 -77.2911 352° North 387 445 41,000  Level Miami Center
Mon 05:13:38 PM 29.2661 -77.3106 351° North 395 455 41,000  Level Miami Center
Mon 05:14:38 PM 29.3828 -77.3325 351° North 402 463 41,000  Level Miami Center
Mon 05:15:38 PM 29.4831 -77.3472 353° North 391 450 41,000  Level Miami Center
Mon 05:16:38 PM 29.6017 -77.3692 351° North 392 451 41,000  Level Miami Center
Mon 05:17:38 PM 29.7122 -77.3864 352° North 392 451 41,000  Level Miami Center
Mon 05:18:38 PM 29.8144 -77.4036 352° North 383 441 41,000  Level Miami Center
Mon 05:22:23 PM 30.2047 -77.4542 354° North 374 430 41,000  Level Jacksonville Center
Mon 05:23:23 PM 30.3142 -77.4744 351° North 381 438 41,000  Level Jacksonville Center
Mon 05:24:23 PM 30.4253 -77.4875 354° North 381 438 41,000  Level Jacksonville Center
Mon 05:25:23 PM 30.5328 -77.5128 349° North 387 445 41,000  Level Jacksonville Center
Mon 05:26:23 PM 30.6400 -77.5308 352° North 387 445 41,000  Level Jacksonville Center
Mon 05:27:23 PM 30.7492 -77.5439 354° North 392 451 41,000  Level Jacksonville Center
Mon 05:28:23 PM 30.8564 -77.5669 350° North 392 451 41,000  Level Jacksonville Center
Mon 05:30:23 PM 31.0731 -77.6056 351° North 392 451 41,000  Level Jacksonville Center
Mon 05:31:23 PM 31.1803 -77.6239 352° North 392 451 41,000  Level Jacksonville Center
Mon 05:32:23 PM 31.2897 -77.6444 351° North 392 451 41,000  Level Jacksonville Center
Mon 05:33:23 PM 31.3967 -77.6578 354° North 392 451 41,000  Level Jacksonville Center
Mon 05:34:23 PM 31.5039 -77.6786 351° North 392 451 41,000  Level Jacksonville Center
Mon 05:35:23 PM 31.6133 -77.6969 352° North 392 451 41,000  Level Jacksonville Center
Mon 05:36:23 PM 31.7206 -77.7200 350° North 392 451 41,000  Level Jacksonville Center
Mon 05:37:23 PM 31.8278 -77.7361 353° North 392 451 41,000  Level Jacksonville Center
Mon 05:38:23 PM 31.9350 -77.7569 351° North 392 451 41,000  Level Jacksonville Center
Mon 05:39:23 PM 32.0422 -77.7706 354° North 392 451 41,000  Level Jacksonville Center
Mon 05:40:23 PM 32.1475 -77.7967 348° North 392 451 41,000  Level Jacksonville Center
Mon 05:41:23 PM 32.2664 -77.7950 North 392 451 41,000  Level Jacksonville Center
Mon 05:42:23 PM 32.3658 -77.7772 North 392 451 41,000  Level Jacksonville Center
Mon 05:43:23 PM 32.4758 -77.7636 North 392 451 41,000  Level Jacksonville Center
Mon 05:44:23 PM 32.5858 -77.7475 North 392 451 41,000  Level Jacksonville Center
Mon 05:45:23 PM 32.6936 -77.7314 North 397 457 41,000  Level Jacksonville Center
Mon 05:46:23 PM 32.8056 -77.7128 North 397 457 41,000  Level Jacksonville Center
Mon 05:48:40 PM 33.0542 -77.6875 North 405 466 41,000  Level Washington Center
Mon 05:49:41 PM 33.1647 -77.6950 357° North 399 459 41,000  Level Washington Center
Mon 05:50:41 PM 33.2750 -77.6978 359° North 399 459 41,000  Level Washington Center
Mon 05:51:41 PM 33.3878 -77.7006 359° North 399 459 41,000  Level Washington Center
Mon 05:52:39 PM 33.4981 -77.7033 359° North 399 459 41,000  Level Washington Center
Mon 05:53:39 PM 33.6108 -77.7061 359° North 399 459 41,000  Level Washington Center
Mon 05:54:40 PM 33.7211 -77.7117 358° North 399 459 41,000  Level Washington Center
Mon 05:55:41 PM 33.8317 -77.7119 360° North 404 465 41,000  Level Washington Center
Mon 05:56:39 PM 33.9569 -77.7150 359° North 399 459 41,000  Level Washington Center
Mon 05:57:40 PM 34.0717 -77.7156 360° North 399 459 41,000  Level Washington Center
Mon 05:58:41 PM 34.1819 -77.7233 357° North 399 459 41,000  Level Washington Center
Mon 05:59:39 PM 34.2906 -77.7286 358° North 399 459 41,000  Level Washington Center
Mon 06:01:41 PM 34.5114 -77.7369 357° North 399 459 41,000  Level Washington Center
Mon 06:02:39 PM 34.6178 -77.7397 359° North 399 459 41,000  Level Washington Center
Mon 06:03:39 PM 34.7283 -77.7425 359° North 394 453 41,000  Level Washington Center
Mon 06:04:40 PM 34.8328 -77.7428 360° North 387 445 41,000  Level Washington Center
Mon 06:05:41 PM 34.9453 -77.7458 359° North 382 440 41,000  Level Washington Center
Mon 06:06:41 PM 35.0517 -77.7461 360° North 382 440 41,000  Level Washington Center
Mon 06:07:41 PM 35.1600 -77.7542 357° North 382 440 41,000  Level Washington Center
Mon 06:08:39 PM 35.2686 -77.7569 359° North 382 440 41,000  Level Washington Center
Mon 06:09:40 PM 35.3769 -77.7600 359° North 387 445 41,000  Level Washington Center
Mon 06:10:41 PM 35.4833 -77.7653 358° North 387 445 41,000  Level Washington Center
Mon 06:11:39 PM 35.5917 -77.7658 360° North 382 440 41,000  Level Washington Center
Mon 06:12:40 PM 35.7003 -77.7711 358° North 382 440 41,000  Level Washington Center
Mon 06:13:40 PM 35.8067 -77.7717 360° North 382 440 41,000  Level Washington Center
Mon 06:14:41 PM 35.9150 -77.7772 358° North 382 440 41,000  Level Washington Center
Mon 06:15:41 PM 36.0233 -77.7828 358° North 382 440 41,000  Level Washington Center
Mon 06:16:39 PM 36.1297 -77.7856 359° North 382 440 41,000  Level Washington Center
Mon 06:17:39 PM 36.2278 -77.7883 359° North 382 440 41,000  Level Washington Center
Mon 06:18:39 PM 36.3342 -77.7889 360° North 382 440 41,000  Level Washington Center
Mon 06:19:40 PM 36.4508 -77.7947 358° North 377 434 41,000  Level Washington Center
Mon 06:20:40 PM 36.5572 -77.7975 359° North 377 434 41,000  Level Washington Center
Mon 06:21:41 PM 36.6636 -77.8033 357° North 377 434 41,000  Level Washington Center
Mon 06:22:41 PM 36.7719 -77.8064 359° North 383 441 41,000  Level Washington Center
Mon 06:23:39 PM 36.8803 -77.8094 359° North 383 441 41,000  Level Washington Center
Mon 06:24:39 PM 36.9867 -77.8125 359° North 383 441 41,000  Level Washington Center
Mon 06:25:40 PM 37.0953 -77.8156 359° North 383 441 41,000  Level Washington Center
Mon 06:26:40 PM 37.2014 -77.8186 359° North 383 441 41,000  Level Washington Center
Mon 06:27:41 PM 37.3100 -77.8219 359° North 383 441 41,000  Level Washington Center
Mon 06:28:41 PM 37.4161 -77.8250 359° North 383 441 41,000  Level Washington Center
Mon 06:29:41 PM 37.5228 -77.8175 North 383 441 41,000  Level Washington Center
Mon 06:30:39 PM 37.6200 -77.7444 31° Northeast 383 441 41,000  Level Washington Center
Mon 06:31:40 PM 37.7133 -77.6603 35° Northeast 393 452 41,000  Level Washington Center
Mon 06:32:41 PM 37.8086 -77.5764 35° Northeast 405 466 41,000  Level Washington Center
Mon 06:33:39 PM 37.9017 -77.4892 36° Northeast 410 472 41,000  Level Washington Center
Mon 06:34:39 PM 37.9928 -77.4044 36° Northeast 410 472 41,000  Level Washington Center
Mon 06:35:40 PM 38.0856 -77.3225 35° Northeast 410 472 41,000  Level Washington Center
Mon 06:36:41 PM 38.1786 -77.2375 36° Northeast 410 472 41,000  Level Washington Center
Mon 06:37:41 PM 38.2736 -77.1494 36° Northeast 416 479 41,000 -350 Level Washington Center
Mon 06:38:41 PM 38.3539 -77.0744 36° Northeast 416 479 40,300 -1,373 Descending Washington Center
Mon 06:39:39 PM 38.4486 -76.9861 36° Northeast 416 479 38,300 -2,067 Descending Washington Center
Mon 06:40:40 PM 38.5350 -76.9056 36° Northeast 411 473 36,200 -2,066 Descending Washington Center
Mon 06:41:41 PM 38.6194 -76.8247 37° Northeast 389 448 34,100 -2,132 Descending Washington Center
Mon 06:42:41 PM 38.7014 -76.7489 36° Northeast 378 435 31,900 -2,136 Descending Washington Center
Mon 06:43:39 PM 38.7814 -76.6594 41° Northeast 373 429 29,900 -2,034 Descending Washington Center
Mon 06:44:39 PM 38.8636 -76.5619 43° Northeast 378 435 27,900 -1,983 Descending Washington Center
Mon 06:45:40 PM 38.9456 -76.4697 41° Northeast 389 448 25,900 -1,785 Descending Washington Center
Mon 06:46:40 PM 39.0275 -76.3744 42° Northeast 389 448 24,300 -942 Descending Washington Center
Mon 06:47:41 PM 39.1094 -76.2792 42° Northeast 394 453 24,000 -148 Descending Washington Center
Mon 06:48:42 PM 39.1892 -76.1861 42° Northeast 394 453 24,000 -305 Level Washington Center
Mon 06:49:39 PM 39.2833 -76.0769 42° Northeast 400 460 23,400 -1,322 Descending Washington Center
Mon 06:50:40 PM 39.3711 -75.9969 35° Northeast 393 452 21,400 -1,983 Descending Washington Center
Mon 06:51:40 PM 39.4528 -75.9167 37° Northeast 380 437 19,400 -1,962 Descending Washington Center
Mon 06:54:08 PM 39.6500 -75.7333 36° Northeast 344 396 14,600 -1,871 Descending Philadelphia TRACON
Mon 06:55:02 PM 39.7167 -75.6667 38° Northeast 330 380 13,100 -750 Descending Philadelphia TRACON
Mon 06:56:08 PM 39.8000 -75.6000 32° Northeast 323 372 13,100 -53 Level Philadelphia TRACON
Mon 06:56:56 PM 39.8667 -75.5500 30° Northeast 324 373 13,000 -56 Descending Philadelphia TRACON
Mon 06:57:56 PM 39.9333 -75.4833 37° Northeast 324 373 13,000  Level Philadelphia TRACON
Mon 06:58:56 PM 40.0000 -75.4000 44° Northeast 326 375 13,000  Level Philadelphia TRACON
Mon 06:59:56 PM 40.0833 -75.3333 31° Northeast 328 377 13,000 50 Level Philadelphia TRACON
Mon 07:00:56 PM 40.1500 -75.2667 37° Northeast 330 380 13,100 -714 Climbing Philadelphia TRACON
Mon 07:02:02 PM 40.2333 -75.2000 31° Northeast 267 307 11,500 -1,000 Descending Philadelphia TRACON
Mon 07:03:02 PM 40.2833 -75.1500 37° Northeast 259 298 11,000 -1,404 Descending Philadelphia TRACON
Mon 07:05:10 PM 40.4000 -75.0000 44° Northeast 257 296 7,100 -1,732 Descending New York TRACON
Mon 07:06:16 PM 40.4500 -74.9333 45° Northeast 236 272 5,400 -1,714 Descending New York TRACON
Mon 07:07:16 PM 40.4833 -74.8833 49° Northeast 229 264 3,500 -1,150 Descending New York TRACON
Mon 07:08:16 PM 40.5333 -74.8167 45° Northeast 232 267 3,100 -200 Descending New York TRACON
Mon 07:09:16 PM 40.5833 -74.7500 45° Northeast 239 275 3,100  Level New York TRACON
Mon 07:10:16 PM 40.6000 -74.6667 75° East 247 284 3,100 -100 Level New York TRACON
Mon 07:11:16 PM 40.6333 -74.6000 57° Northeast 227 261 2,900 -500 Descending New York TRACON
Mon 07:12:16 PM 40.6833 -74.5500 37° Northeast 202 232 2,100 -500 Descending New York TRACON
Mon 07:13:16 PM 40.7167 -74.5000 49° Northeast 158 182 1,900 -250 Descending New York TRACON
Mon 07:14:16 PM 40.7500 -74.4667 37° Northeast 134 154 1,600 -500 Descending New York TRACON
Mon 07:15:16 PM 40.7667 -74.4500 37° Northeast 107 123 900 -500 Descending New York TRACON
Mon 07:16:16 PM 40.7833 -74.4167 57° Northeast 108 124 600 -300 Descending New York TRACON
Mon 07:18:00 PM 40.7833 -74.4000 52° Northeast  Level FlightAware Approximate
Mon 07:25:00 PM 40.7993 -74.4149 52° Northeast  Level Estimated

Login

Don't have an account? Register now (free) for customized features, flight alerts, and more!